Clever, Missouri
Current Conditions -  °F | °C
As of 2:52 AM on Wednesday 22 Oct 2014 (Local Time) from KSGF Reporting Station
Clear Clear  
Wind Chill: 12°   Ceiling: Unl
Heat Index: 12°   Visibility: 10mi
Dew Point:   Wind: 9mph
Humidity: 71%   Direction: 150°SSE
Pressure: 30.15"   Gusts: NA
Location:  37.03°N, 93.47°W
Report Text: KSGF 220752Z 15008KT 10SM CLR 12/07 A3015 RMK AO2 SLP204 T01170067
Loading
Personal Weather Stations






























Interactive Weather Map
Tropical Storm Tracking
New forecast layout! Learn more

10-Day Weather Forecast

Advertisements
Track Severe Weather on mobile